sensor_id;sensor_type;location;lat;lon;timestamp;P1;durP1;ratioP1;P2;durP2;ratioP2
79363;SDS011;68832;53.112;17.980;2023-06-10T00:00:28;8.70;;;3.00;;
79363;SDS011;68832;53.112;17.980;2023-06-10T00:03:18;8.00;;;3.90;;
79363;SDS011;68832;53.112;17.980;2023-06-10T00:05:45;5.60;;;2.80;;
79363;SDS011;68832;53.112;17.980;2023-06-10T00:08:13;5.40;;;3.70;;
79363;SDS011;68832;53.112;17.980;2023-06-10T00:10:42;5.70;;;2.80;;
79363;SDS011;68832;53.112;17.980;2023-06-10T00:13:09;8.00;;;3.80;;
79363;SDS011;68832;53.112;17.980;2023-06-10T00:15:37;11.20;;;4.10;;
79363;SDS011;68832;53.112;17.980;2023-06-10T00:18:04;6.90;;;3.20;;
79363;SDS011;68832;53.112;17.980;2023-06-10T00:20:31;7.60;;;3.80;;
79363;SDS011;68832;53.112;17.980;2023-06-10T00:22:59;5.30;;;2.70;;
79363;SDS011;68832;53.112;17.980;2023-06-10T00:25:28;7.30;;;4.10;;
79363;SDS011;68832;53.112;17.980;2023-06-10T00:27:55;6.40;;;3.80;;
79363;SDS011;68832;53.112;17.980;2023-06-10T00:30:22;9.70;;;4.20;;
79363;SDS011;68832;53.112;17.980;2023-06-10T00:32:49;10.40;;;4.20;;
79363;SDS011;68832;53.112;17.980;2023-06-10T00:35:16;6.60;;;3.80;;
79363;SDS011;68832;53.112;17.980;2023-06-10T00:37:43;5.70;;;3.80;;
79363;SDS011;68832;53.112;17.980;2023-06-10T00:40:11;8.00;;;3.10;;
79363;SDS011;68832;53.112;17.980;2023-06-10T00:42:38;8.00;;;4.10;;
79363;SDS011;68832;53.112;17.980;2023-06-10T00:45:05;7.00;;;4.30;;
79363;SDS011;68832;53.112;17.980;2023-06-10T00:47:33;5.80;;;3.30;;
79363;SDS011;68832;53.112;17.980;2023-06-10T00:50:03;8.70;;;3.30;;
79363;SDS011;68832;53.112;17.980;2023-06-10T00:52:32;8.10;;;3.10;;
79363;SDS011;68832;53.112;17.980;2023-06-10T00:55:00;8.20;;;3.70;;
79363;SDS011;68832;53.112;17.980;2023-06-10T00:57:27;7.40;;;4.20;;
79363;SDS011;68832;53.112;17.980;2023-06-10T00:59:54;7.00;;;4.10;;
79363;SDS011;68832;53.112;17.980;2023-06-10T01:02:21;6.00;;;2.70;;
79363;SDS011;68832;53.112;17.980;2023-06-10T01:04:48;7.00;;;3.60;;
79363;SDS011;68832;53.112;17.980;2023-06-10T01:07:33;7.10;;;3.60;;
79363;SDS011;68832;53.112;17.980;2023-06-10T01:11:04;4.10;;;2.70;;
79363;SDS011;68832;53.112;17.980;2023-06-10T01:13:17;7.20;;;3.10;;
79363;SDS011;68832;53.112;17.980;2023-06-10T01:15:45;7.00;;;3.10;;
79363;SDS011;68832;53.112;17.980;2023-06-10T01:18:13;7.00;;;4.70;;
79363;SDS011;68832;53.112;17.980;2023-06-10T01:20:41;7.90;;;4.20;;
79363;SDS011;68832;53.112;17.980;2023-06-10T01:23:10;5.80;;;2.80;;
79363;SDS011;68832;53.112;17.980;2023-06-10T01:25:38;8.60;;;4.20;;
79363;SDS011;68832;53.112;17.980;2023-06-10T01:30:44;9.70;;;4.30;;
79363;SDS011;68832;53.112;17.980;2023-06-10T01:33:17;7.40;;;3.90;;
79363;SDS011;68832;53.112;17.980;2023-06-10T01:35:47;7.20;;;3.80;;
79363;SDS011;68832;53.112;17.980;2023-06-10T01:38:14;5.60;;;3.30;;
79363;SDS011;68832;53.112;17.980;2023-06-10T01:40:42;6.10;;;3.30;;
79363;SDS011;68832;53.112;17.980;2023-06-10T01:43:09;10.00;;;3.40;;
79363;SDS011;68832;53.112;17.980;2023-06-10T01:45:36;4.80;;;2.40;;
79363;SDS011;68832;53.112;17.980;2023-06-10T01:48:02;7.00;;;4.20;;
79363;SDS011;68832;53.112;17.980;2023-06-10T01:50:30;5.70;;;4.00;;
79363;SDS011;68832;53.112;17.980;2023-06-10T01:52:58;6.10;;;3.70;;
79363;SDS011;68832;53.112;17.980;2023-06-10T01:55:27;9.50;;;4.00;;
79363;SDS011;68832;53.112;17.980;2023-06-10T01:57:54;8.30;;;2.70;;
79363;SDS011;68832;53.112;17.980;2023-06-10T02:00:21;9.80;;;4.00;;
79363;SDS011;68832;53.112;17.980;2023-06-10T02:02:48;9.80;;;4.40;;
79363;SDS011;68832;53.112;17.980;2023-06-10T02:05:15;12.20;;;4.90;;
79363;SDS011;68832;53.112;17.980;2023-06-10T02:07:42;7.10;;;4.00;;
79363;SDS011;68832;53.112;17.980;2023-06-10T02:10:09;5.70;;;2.80;;
79363;SDS011;68832;53.112;17.980;2023-06-10T02:12:36;4.90;;;2.80;;
79363;SDS011;68832;53.112;17.980;2023-06-10T02:15:03;7.10;;;3.60;;
79363;SDS011;68832;53.112;17.980;2023-06-10T02:17:30;7.10;;;3.50;;
79363;SDS011;68832;53.112;17.980;2023-06-10T02:19:57;6.60;;;3.40;;
79363;SDS011;68832;53.112;17.980;2023-06-10T02:22:26;4.10;;;2.40;;
79363;SDS011;68832;53.112;17.980;2023-06-10T02:24:52;9.20;;;4.10;;
79363;SDS011;68832;53.112;17.980;2023-06-10T02:27:20;8.50;;;3.70;;
79363;SDS011;68832;53.112;17.980;2023-06-10T02:29:48;7.70;;;4.40;;
79363;SDS011;68832;53.112;17.980;2023-06-10T02:32:15;8.80;;;3.90;;
79363;SDS011;68832;53.112;17.980;2023-06-10T02:34:42;12.40;;;4.20;;
79363;SDS011;68832;53.112;17.980;2023-06-10T02:37:12;7.60;;;3.90;;
79363;SDS011;68832;53.112;17.980;2023-06-10T02:39:39;5.90;;;3.20;;
79363;SDS011;68832;53.112;17.980;2023-06-10T02:42:09;8.70;;;3.60;;
79363;SDS011;68832;53.112;17.980;2023-06-10T02:44:37;6.80;;;2.90;;
79363;SDS011;68832;53.112;17.980;2023-06-10T02:47:05;9.20;;;4.50;;
79363;SDS011;68832;53.112;17.980;2023-06-10T02:49:33;9.60;;;5.60;;
79363;SDS011;68832;53.112;17.980;2023-06-10T02:52:01;4.80;;;2.90;;
79363;SDS011;68832;53.112;17.980;2023-06-10T02:54:29;6.60;;;3.60;;
79363;SDS011;68832;53.112;17.980;2023-06-10T02:56:56;6.60;;;3.10;;
79363;SDS011;68832;53.112;17.980;2023-06-10T02:59:25;7.40;;;4.00;;
79363;SDS011;68832;53.112;17.980;2023-06-10T03:01:54;8.90;;;4.00;;
79363;SDS011;68832;53.112;17.980;2023-06-10T03:04:21;5.30;;;3.30;;
79363;SDS011;68832;53.112;17.980;2023-06-10T03:06:55;8.20;;;4.80;;
79363;SDS011;68832;53.112;17.980;2023-06-10T03:09:27;9.80;;;3.60;;
79363;SDS011;68832;53.112;17.980;2023-06-10T03:11:56;4.70;;;2.70;;
79363;SDS011;68832;53.112;17.980;2023-06-10T03:14:24;9.40;;;3.50;;
79363;SDS011;68832;53.112;17.980;2023-06-10T03:16:52;11.00;;;4.20;;
79363;SDS011;68832;53.112;17.980;2023-06-10T03:19:20;12.20;;;5.30;;
79363;SDS011;68832;53.112;17.980;2023-06-10T03:21:49;8.70;;;4.70;;
79363;SDS011;68832;53.112;17.980;2023-06-10T03:24:24;10.40;;;4.60;;
79363;SDS011;68832;53.112;17.980;2023-06-10T03:26:52;10.10;;;4.40;;
79363;SDS011;68832;53.112;17.980;2023-06-10T03:29:19;8.70;;;3.80;;
79363;SDS011;68832;53.112;17.980;2023-06-10T03:31:47;8.80;;;5.10;;
79363;SDS011;68832;53.112;17.980;2023-06-10T03:34:14;9.70;;;4.80;;
79363;SDS011;68832;53.112;17.980;2023-06-10T03:36:42;7.10;;;4.30;;
79363;SDS011;68832;53.112;17.980;2023-06-10T03:39:10;12.00;;;4.00;;
79363;SDS011;68832;53.112;17.980;2023-06-10T03:41:37;6.00;;;3.70;;
79363;SDS011;68832;53.112;17.980;2023-06-10T03:44:04;6.80;;;3.40;;
79363;SDS011;68832;53.112;17.980;2023-06-10T03:46:31;9.60;;;3.90;;
79363;SDS011;68832;53.112;17.980;2023-06-10T03:48:58;6.90;;;3.30;;
79363;SDS011;68832;53.112;17.980;2023-06-10T03:51:27;9.80;;;3.80;;
79363;SDS011;68832;53.112;17.980;2023-06-10T03:53:54;9.10;;;3.40;;
79363;SDS011;68832;53.112;17.980;2023-06-10T03:56:22;11.20;;;4.30;;
79363;SDS011;68832;53.112;17.980;2023-06-10T03:58:49;5.40;;;3.20;;
79363;SDS011;68832;53.112;17.980;2023-06-10T04:01:16;6.40;;;3.40;;
79363;SDS011;68832;53.112;17.980;2023-06-10T04:06:12;6.10;;;3.00;;
79363;SDS011;68832;53.112;17.980;2023-06-10T04:08:38;6.40;;;2.70;;
79363;SDS011;68832;53.112;17.980;2023-06-10T04:11:05;6.50;;;2.90;;
79363;SDS011;68832;53.112;17.980;2023-06-10T04:13:32;8.50;;;2.10;;
79363;SDS011;68832;53.112;17.980;2023-06-10T04:15:59;5.30;;;2.70;;
79363;SDS011;68832;53.112;17.980;2023-06-10T04:18:27;9.70;;;3.70;;
79363;SDS011;68832;53.112;17.980;2023-06-10T04:20:56;4.90;;;3.20;;
79363;SDS011;68832;53.112;17.980;2023-06-10T04:23:23;7.40;;;2.70;;
79363;SDS011;68832;53.112;17.980;2023-06-10T04:25:51;9.20;;;4.20;;
79363;SDS011;68832;53.112;17.980;2023-06-10T04:28:18;5.20;;;2.80;;
79363;SDS011;68832;53.112;17.980;2023-06-10T04:30:46;8.70;;;3.20;;
79363;SDS011;68832;53.112;17.980;2023-06-10T04:33:13;6.80;;;3.60;;
79363;SDS011;68832;53.112;17.980;2023-06-10T04:35:40;9.30;;;4.20;;
79363;SDS011;68832;53.112;17.980;2023-06-10T04:38:08;7.00;;;2.70;;
79363;SDS011;68832;53.112;17.980;2023-06-10T04:40:35;6.40;;;2.90;;
79363;SDS011;68832;53.112;17.980;2023-06-10T04:43:03;4.60;;;2.10;;
79363;SDS011;68832;53.112;17.980;2023-06-10T04:45:31;7.60;;;2.00;;
79363;SDS011;68832;53.112;17.980;2023-06-10T04:47:59;5.30;;;2.50;;
79363;SDS011;68832;53.112;17.980;2023-06-10T04:50:26;6.50;;;2.60;;
79363;SDS011;68832;53.112;17.980;2023-06-10T04:52:53;6.80;;;2.50;;
79363;SDS011;68832;53.112;17.980;2023-06-10T04:55:24;4.70;;;2.30;;
79363;SDS011;68832;53.112;17.980;2023-06-10T04:57:52;6.30;;;3.00;;
79363;SDS011;68832;53.112;17.980;2023-06-10T05:00:19;8.70;;;3.10;;
79363;SDS011;68832;53.112;17.980;2023-06-10T05:02:46;4.80;;;2.50;;
79363;SDS011;68832;53.112;17.980;2023-06-10T05:05:16;4.90;;;3.10;;
79363;SDS011;68832;53.112;17.980;2023-06-10T05:07:43;8.10;;;2.00;;
79363;SDS011;68832;53.112;17.980;2023-06-10T05:10:10;5.40;;;2.40;;
79363;SDS011;68832;53.112;17.980;2023-06-10T05:12:38;7.70;;;2.50;;
79363;SDS011;68832;53.112;17.980;2023-06-10T05:15:07;5.90;;;2.10;;
79363;SDS011;68832;53.112;17.980;2023-06-10T05:17:34;5.80;;;3.00;;
79363;SDS011;68832;53.112;17.980;2023-06-10T05:20:02;5.10;;;2.40;;
79363;SDS011;68832;53.112;17.980;2023-06-10T05:22:29;4.70;;;2.30;;
79363;SDS011;68832;53.112;17.980;2023-06-10T05:24:56;4.30;;;1.90;;
79363;SDS011;68832;53.112;17.980;2023-06-10T05:27:23;7.50;;;2.80;;
79363;SDS011;68832;53.112;17.980;2023-06-10T05:29:50;3.00;;;2.00;;
79363;SDS011;68832;53.112;17.980;2023-06-10T05:32:18;6.20;;;2.60;;
79363;SDS011;68832;53.112;17.980;2023-06-10T05:34:45;3.90;;;2.50;;
79363;SDS011;68832;53.112;17.980;2023-06-10T05:37:12;9.00;;;2.50;;
79363;SDS011;68832;53.112;17.980;2023-06-10T05:39:40;6.50;;;2.00;;
79363;SDS011;68832;53.112;17.980;2023-06-10T05:42:07;8.20;;;3.80;;
79363;SDS011;68832;53.112;17.980;2023-06-10T05:44:34;10.00;;;2.70;;
79363;SDS011;68832;53.112;17.980;2023-06-10T05:47:01;5.30;;;2.10;;
79363;SDS011;68832;53.112;17.980;2023-06-10T05:49:29;5.90;;;2.90;;
79363;SDS011;68832;53.112;17.980;2023-06-10T05:51:56;10.40;;;2.40;;
79363;SDS011;68832;53.112;17.980;2023-06-10T05:54:25;7.40;;;2.30;;
79363;SDS011;68832;53.112;17.980;2023-06-10T05:56:53;6.20;;;2.10;;
79363;SDS011;68832;53.112;17.980;2023-06-10T05:59:20;10.10;;;2.10;;
79363;SDS011;68832;53.112;17.980;2023-06-10T06:01:49;9.00;;;3.20;;
79363;SDS011;68832;53.112;17.980;2023-06-10T06:04:19;6.40;;;3.30;;
79363;SDS011;68832;53.112;17.980;2023-06-10T06:06:46;6.40;;;2.70;;
79363;SDS011;68832;53.112;17.980;2023-06-10T06:09:13;8.30;;;2.50;;
79363;SDS011;68832;53.112;17.980;2023-06-10T06:11:40;7.70;;;2.50;;
79363;SDS011;68832;53.112;17.980;2023-06-10T06:14:07;7.90;;;2.80;;
79363;SDS011;68832;53.112;17.980;2023-06-10T06:16:34;7.90;;;2.90;;
79363;SDS011;68832;53.112;17.980;2023-06-10T06:19:01;6.40;;;2.40;;
79363;SDS011;68832;53.112;17.980;2023-06-10T06:21:28;9.70;;;2.80;;
79363;SDS011;68832;53.112;17.980;2023-06-10T06:23:55;8.90;;;3.10;;
79363;SDS011;68832;53.112;17.980;2023-06-10T06:26:22;4.30;;;2.90;;
79363;SDS011;68832;53.112;17.980;2023-06-10T06:28:49;9.60;;;2.10;;
79363;SDS011;68832;53.112;17.980;2023-06-10T06:31:16;8.70;;;3.00;;
79363;SDS011;68832;53.112;17.980;2023-06-10T06:33:43;5.20;;;2.90;;
79363;SDS011;68832;53.112;17.980;2023-06-10T06:36:10;5.70;;;2.70;;
79363;SDS011;68832;53.112;17.980;2023-06-10T06:38:37;5.50;;;2.70;;
79363;SDS011;68832;53.112;17.980;2023-06-10T06:41:04;7.50;;;3.10;;
79363;SDS011;68832;53.112;17.980;2023-06-10T06:43:32;6.20;;;2.60;;
79363;SDS011;68832;53.112;17.980;2023-06-10T06:46:10;6.80;;;2.30;;
79363;SDS011;68832;53.112;17.980;2023-06-10T06:48:36;9.40;;;2.30;;
79363;SDS011;68832;53.112;17.980;2023-06-10T06:51:03;5.60;;;2.00;;
79363;SDS011;68832;53.112;17.980;2023-06-10T06:53:30;6.20;;;2.50;;
79363;SDS011;68832;53.112;17.980;2023-06-10T06:55:57;7.70;;;2.20;;
79363;SDS011;68832;53.112;17.980;2023-06-10T06:58:24;5.70;;;2.60;;
79363;SDS011;68832;53.112;17.980;2023-06-10T07:00:51;7.70;;;2.60;;
79363;SDS011;68832;53.112;17.980;2023-06-10T07:03:18;7.30;;;2.40;;
79363;SDS011;68832;53.112;17.980;2023-06-10T07:05:45;6.80;;;2.00;;
79363;SDS011;68832;53.112;17.980;2023-06-10T07:08:12;5.60;;;2.30;;
79363;SDS011;68832;53.112;17.980;2023-06-10T07:10:38;6.50;;;2.20;;
79363;SDS011;68832;53.112;17.980;2023-06-10T07:13:05;3.40;;;1.80;;
79363;SDS011;68832;53.112;17.980;2023-06-10T07:15:32;3.70;;;1.90;;
79363;SDS011;68832;53.112;17.980;2023-06-10T07:18:00;10.30;;;3.10;;
79363;SDS011;68832;53.112;17.980;2023-06-10T07:20:27;4.20;;;1.90;;
79363;SDS011;68832;53.112;17.980;2023-06-10T07:22:54;5.90;;;2.20;;
79363;SDS011;68832;53.112;17.980;2023-06-10T07:25:21;7.60;;;2.80;;
79363;SDS011;68832;53.112;17.980;2023-06-10T07:27:48;7.90;;;3.20;;
79363;SDS011;68832;53.112;17.980;2023-06-10T07:30:14;7.20;;;2.90;;
79363;SDS011;68832;53.112;17.980;2023-06-10T07:32:42;5.90;;;2.50;;
79363;SDS011;68832;53.112;17.980;2023-06-10T07:35:10;6.20;;;2.10;;
79363;SDS011;68832;53.112;17.980;2023-06-10T07:37:37;5.20;;;2.20;;
79363;SDS011;68832;53.112;17.980;2023-06-10T07:40:05;8.70;;;3.10;;
79363;SDS011;68832;53.112;17.980;2023-06-10T07:42:34;9.70;;;2.60;;
79363;SDS011;68832;53.112;17.980;2023-06-10T07:45:02;9.40;;;3.00;;
79363;SDS011;68832;53.112;17.980;2023-06-10T07:47:29;5.30;;;2.90;;
79363;SDS011;68832;53.112;17.980;2023-06-10T07:49:57;6.30;;;3.80;;
79363;SDS011;68832;53.112;17.980;2023-06-10T07:52:24;6.00;;;2.20;;
79363;SDS011;68832;53.112;17.980;2023-06-10T07:54:52;10.10;;;3.00;;
79363;SDS011;68832;53.112;17.980;2023-06-10T07:57:19;5.40;;;2.30;;
79363;SDS011;68832;53.112;17.980;2023-06-10T07:59:46;4.60;;;2.10;;
79363;SDS011;68832;53.112;17.980;2023-06-10T08:02:13;6.70;;;2.40;;
79363;SDS011;68832;53.112;17.980;2023-06-10T08:04:40;5.80;;;3.40;;
79363;SDS011;68832;53.112;17.980;2023-06-10T08:07:06;5.20;;;2.50;;
79363;SDS011;68832;53.112;17.980;2023-06-10T08:09:33;6.90;;;1.90;;
79363;SDS011;68832;53.112;17.980;2023-06-10T08:12:01;7.90;;;2.60;;
79363;SDS011;68832;53.112;17.980;2023-06-10T08:14:30;7.90;;;2.50;;
79363;SDS011;68832;53.112;17.980;2023-06-10T08:16:56;3.40;;;2.00;;
79363;SDS011;68832;53.112;17.980;2023-06-10T08:19:23;8.50;;;2.00;;
79363;SDS011;68832;53.112;17.980;2023-06-10T08:21:50;7.20;;;3.00;;
79363;SDS011;68832;53.112;17.980;2023-06-10T08:24:17;6.40;;;3.30;;
79363;SDS011;68832;53.112;17.980;2023-06-10T08:29:12;4.70;;;1.80;;
79363;SDS011;68832;53.112;17.980;2023-06-10T08:31:42;5.40;;;2.00;;
79363;SDS011;68832;53.112;17.980;2023-06-10T08:34:10;6.10;;;2.20;;
79363;SDS011;68832;53.112;17.980;2023-06-10T08:36:38;7.60;;;2.40;;
79363;SDS011;68832;53.112;17.980;2023-06-10T08:39:05;5.30;;;1.90;;
79363;SDS011;68832;53.112;17.980;2023-06-10T08:41:35;6.20;;;2.90;;
79363;SDS011;68832;53.112;17.980;2023-06-10T08:44:14;3.70;;;2.40;;
79363;SDS011;68832;53.112;17.980;2023-06-10T08:46:47;6.10;;;2.30;;
79363;SDS011;68832;53.112;17.980;2023-06-10T08:51:48;5.00;;;1.90;;
79363;SDS011;68832;53.112;17.980;2023-06-10T08:54:27;6.10;;;2.10;;
79363;SDS011;68832;53.112;17.980;2023-06-10T08:56:57;6.00;;;2.60;;
79363;SDS011;68832;53.112;17.980;2023-06-10T08:59:26;8.50;;;2.60;;
79363;SDS011;68832;53.112;17.980;2023-06-10T09:01:53;6.60;;;2.00;;
79363;SDS011;68832;53.112;17.980;2023-06-10T09:04:21;7.80;;;2.30;;
79363;SDS011;68832;53.112;17.980;2023-06-10T09:06:48;4.70;;;1.90;;
79363;SDS011;68832;53.112;17.980;2023-06-10T09:09:16;6.90;;;2.20;;
79363;SDS011;68832;53.112;17.980;2023-06-10T09:11:43;5.90;;;1.60;;
79363;SDS011;68832;53.112;17.980;2023-06-10T09:14:11;6.00;;;2.10;;
79363;SDS011;68832;53.112;17.980;2023-06-10T09:16:41;7.40;;;2.00;;
79363;SDS011;68832;53.112;17.980;2023-06-10T09:19:08;5.80;;;1.70;;
79363;SDS011;68832;53.112;17.980;2023-06-10T09:21:35;8.70;;;2.20;;
79363;SDS011;68832;53.112;17.980;2023-06-10T09:24:03;5.70;;;2.00;;
79363;SDS011;68832;53.112;17.980;2023-06-10T09:26:31;6.40;;;1.90;;
79363;SDS011;68832;53.112;17.980;2023-06-10T09:29:02;7.00;;;2.30;;
79363;SDS011;68832;53.112;17.980;2023-06-10T09:31:32;5.20;;;2.10;;
79363;SDS011;68832;53.112;17.980;2023-06-10T09:34:05;6.00;;;1.60;;
79363;SDS011;68832;53.112;17.980;2023-06-10T09:36:36;3.70;;;1.30;;
79363;SDS011;68832;53.112;17.980;2023-06-10T09:39:03;4.30;;;1.40;;
79363;SDS011;68832;53.112;17.980;2023-06-10T09:41:34;5.30;;;2.10;;
79363;SDS011;68832;53.112;17.980;2023-06-10T09:44:02;4.10;;;2.00;;
79363;SDS011;68832;53.112;17.980;2023-06-10T09:46:37;6.70;;;2.00;;
79363;SDS011;68832;53.112;17.980;2023-06-10T09:49:05;7.70;;;1.80;;
79363;SDS011;68832;53.112;17.980;2023-06-10T09:51:32;8.20;;;1.90;;
79363;SDS011;68832;53.112;17.980;2023-06-10T09:53:59;5.20;;;2.10;;
79363;SDS011;68832;53.112;17.980;2023-06-10T09:56:32;8.40;;;2.10;;
79363;SDS011;68832;53.112;17.980;2023-06-10T09:59:03;3.50;;;1.40;;
79363;SDS011;68832;53.112;17.980;2023-06-10T10:01:32;4.90;;;1.90;;
79363;SDS011;68832;53.112;17.980;2023-06-10T10:03:59;7.20;;;1.30;;
79363;SDS011;68832;53.112;17.980;2023-06-10T10:06:27;3.00;;;1.10;;
79363;SDS011;68832;53.112;17.980;2023-06-10T10:08:56;5.10;;;1.30;;
79363;SDS011;68832;53.112;17.980;2023-06-10T10:11:23;9.50;;;2.20;;
79363;SDS011;68832;53.112;17.980;2023-06-10T10:13:52;5.80;;;1.50;;
79363;SDS011;68832;53.112;17.980;2023-06-10T10:16:25;7.00;;;1.70;;
79363;SDS011;68832;53.112;17.980;2023-06-10T10:18:59;7.00;;;1.60;;
79363;SDS011;68832;53.112;17.980;2023-06-10T10:21:32;5.60;;;2.10;;
79363;SDS011;68832;53.112;17.980;2023-06-10T10:24:21;4.30;;;1.30;;
79363;SDS011;68832;53.112;17.980;2023-06-10T10:26:49;9.60;;;2.30;;
79363;SDS011;68832;53.112;17.980;2023-06-10T10:29:20;3.60;;;1.90;;
79363;SDS011;68832;53.112;17.980;2023-06-10T10:31:50;5.10;;;2.40;;
79363;SDS011;68832;53.112;17.980;2023-06-10T10:34:29;5.00;;;1.90;;
79363;SDS011;68832;53.112;17.980;2023-06-10T10:37:00;9.60;;;1.60;;
79363;SDS011;68832;53.112;17.980;2023-06-10T10:39:27;8.20;;;1.50;;
79363;SDS011;68832;53.112;17.980;2023-06-10T10:41:54;5.60;;;1.80;;
79363;SDS011;68832;53.112;17.980;2023-06-10T10:46:49;8.60;;;1.80;;
79363;SDS011;68832;53.112;17.980;2023-06-10T10:49:20;4.50;;;1.40;;
79363;SDS011;68832;53.112;17.980;2023-06-10T10:51:59;3.90;;;1.50;;
79363;SDS011;68832;53.112;17.980;2023-06-10T10:54:31;3.50;;;1.50;;
79363;SDS011;68832;53.112;17.980;2023-06-10T11:02:40;3.70;;;1.70;;
79363;SDS011;68832;53.112;17.980;2023-06-10T11:05:10;3.40;;;1.00;;
79363;SDS011;68832;53.112;17.980;2023-06-10T11:07:51;5.40;;;2.50;;
79363;SDS011;68832;53.112;17.980;2023-06-10T11:10:30;3.90;;;1.10;;
79363;SDS011;68832;53.112;17.980;2023-06-10T11:13:13;6.00;;;1.90;;
79363;SDS011;68832;53.112;17.980;2023-06-10T11:15:45;7.30;;;1.80;;
79363;SDS011;68832;53.112;17.980;2023-06-10T11:18:14;4.40;;;1.60;;
79363;SDS011;68832;53.112;17.980;2023-06-10T11:20:45;4.00;;;1.70;;
79363;SDS011;68832;53.112;17.980;2023-06-10T11:23:34;4.10;;;1.70;;
79363;SDS011;68832;53.112;17.980;2023-06-10T11:28:40;3.10;;;1.50;;
79363;SDS011;68832;53.112;17.980;2023-06-10T11:31:09;15.20;;;1.90;;
79363;SDS011;68832;53.112;17.980;2023-06-10T11:33:47;5.00;;;1.20;;
79363;SDS011;68832;53.112;17.980;2023-06-10T11:36:14;8.60;;;1.10;;
79363;SDS011;68832;53.112;17.980;2023-06-10T11:38:41;5.90;;;1.40;;
79363;SDS011;68832;53.112;17.980;2023-06-10T11:41:09;6.90;;;1.60;;
79363;SDS011;68832;53.112;17.980;2023-06-10T11:43:42;4.20;;;1.60;;
79363;SDS011;68832;53.112;17.980;2023-06-10T11:46:10;4.40;;;1.10;;
79363;SDS011;68832;53.112;17.980;2023-06-10T11:48:38;3.80;;;1.10;;
79363;SDS011;68832;53.112;17.980;2023-06-10T11:51:08;4.40;;;1.60;;
79363;SDS011;68832;53.112;17.980;2023-06-10T11:53:35;5.70;;;1.70;;
79363;SDS011;68832;53.112;17.980;2023-06-10T11:56:02;4.80;;;1.20;;
79363;SDS011;68832;53.112;17.980;2023-06-10T11:58:30;3.20;;;1.70;;
79363;SDS011;68832;53.112;17.980;2023-06-10T12:00:57;2.40;;;1.10;;
79363;SDS011;68832;53.112;17.980;2023-06-10T12:03:25;7.20;;;1.10;;
79363;SDS011;68832;53.112;17.980;2023-06-10T12:05:59;5.60;;;1.30;;
79363;SDS011;68832;53.112;17.980;2023-06-10T12:08:28;6.30;;;1.90;;
79363;SDS011;68832;53.112;17.980;2023-06-10T12:10:56;3.50;;;1.10;;
79363;SDS011;68832;53.112;17.980;2023-06-10T12:13:27;8.80;;;1.80;;
79363;SDS011;68832;53.112;17.980;2023-06-10T12:15:54;5.60;;;1.40;;
79363;SDS011;68832;53.112;17.980;2023-06-10T12:18:22;4.70;;;1.10;;
79363;SDS011;68832;53.112;17.980;2023-06-10T12:20:50;4.00;;;1.50;;
79363;SDS011;68832;53.112;17.980;2023-06-10T12:25:52;3.50;;;1.40;;
79363;SDS011;68832;53.112;17.980;2023-06-10T12:28:20;4.50;;;1.80;;
79363;SDS011;68832;53.112;17.980;2023-06-10T12:30:51;4.70;;;0.80;;
79363;SDS011;68832;53.112;17.980;2023-06-10T12:33:21;3.10;;;1.70;;
79363;SDS011;68832;53.112;17.980;2023-06-10T12:38:23;10.90;;;1.60;;
79363;SDS011;68832;53.112;17.980;2023-06-10T12:40:51;3.60;;;1.80;;
79363;SDS011;68832;53.112;17.980;2023-06-10T12:43:24;2.60;;;0.90;;
79363;SDS011;68832;53.112;17.980;2023-06-10T12:45:52;3.80;;;1.10;;
79363;SDS011;68832;53.112;17.980;2023-06-10T12:48:20;7.10;;;1.50;;
79363;SDS011;68832;53.112;17.980;2023-06-10T12:50:52;3.60;;;1.80;;
79363;SDS011;68832;53.112;17.980;2023-06-10T12:53:23;4.00;;;1.40;;
79363;SDS011;68832;53.112;17.980;2023-06-10T12:55:51;3.80;;;1.80;;
79363;SDS011;68832;53.112;17.980;2023-06-10T12:58:22;3.40;;;1.50;;
79363;SDS011;68832;53.112;17.980;2023-06-10T13:00:50;4.50;;;1.40;;
79363;SDS011;68832;53.112;17.980;2023-06-10T13:03:19;7.50;;;1.60;;
79363;SDS011;68832;53.112;17.980;2023-06-10T13:05:47;6.40;;;1.00;;
79363;SDS011;68832;53.112;17.980;2023-06-10T13:08:13;4.30;;;1.80;;
79363;SDS011;68832;53.112;17.980;2023-06-10T13:10:40;2.30;;;1.30;;
79363;SDS011;68832;53.112;17.980;2023-06-10T13:13:08;6.80;;;1.50;;
79363;SDS011;68832;53.112;17.980;2023-06-10T13:15:36;4.90;;;1.30;;
79363;SDS011;68832;53.112;17.980;2023-06-10T13:18:03;5.40;;;1.80;;
79363;SDS011;68832;53.112;17.980;2023-06-10T13:20:31;3.10;;;1.30;;
79363;SDS011;68832;53.112;17.980;2023-06-10T13:22:57;3.20;;;1.50;;
79363;SDS011;68832;53.112;17.980;2023-06-10T13:25:25;3.60;;;1.70;;
79363;SDS011;68832;53.112;17.980;2023-06-10T13:27:51;3.10;;;1.40;;
79363;SDS011;68832;53.112;17.980;2023-06-10T13:30:18;4.90;;;1.50;;
79363;SDS011;68832;53.112;17.980;2023-06-10T13:32:45;2.70;;;2.40;;
79363;SDS011;68832;53.112;17.980;2023-06-10T13:35:13;7.40;;;2.50;;
79363;SDS011;68832;53.112;17.980;2023-06-10T13:37:40;3.10;;;1.10;;
79363;SDS011;68832;53.112;17.980;2023-06-10T13:40:07;3.40;;;1.10;;
79363;SDS011;68832;53.112;17.980;2023-06-10T13:42:36;3.50;;;1.00;;
79363;SDS011;68832;53.112;17.980;2023-06-10T13:45:04;4.10;;;1.50;;
79363;SDS011;68832;53.112;17.980;2023-06-10T13:47:32;3.50;;;0.90;;
79363;SDS011;68832;53.112;17.980;2023-06-10T13:49:59;6.40;;;2.20;;
79363;SDS011;68832;53.112;17.980;2023-06-10T13:52:26;3.00;;;1.60;;
79363;SDS011;68832;53.112;17.980;2023-06-10T13:54:53;4.60;;;1.60;;
79363;SDS011;68832;53.112;17.980;2023-06-10T13:57:20;3.10;;;1.10;;
79363;SDS011;68832;53.112;17.980;2023-06-10T13:59:47;3.30;;;1.50;;
79363;SDS011;68832;53.112;17.980;2023-06-10T14:02:14;4.00;;;1.10;;
79363;SDS011;68832;53.112;17.980;2023-06-10T14:04:41;5.10;;;1.50;;
79363;SDS011;68832;53.112;17.980;2023-06-10T14:07:09;2.50;;;1.60;;
79363;SDS011;68832;53.112;17.980;2023-06-10T14:09:36;5.30;;;1.30;;
79363;SDS011;68832;53.112;17.980;2023-06-10T14:12:03;1.90;;;0.70;;
79363;SDS011;68832;53.112;17.980;2023-06-10T14:14:31;8.00;;;3.10;;
79363;SDS011;68832;53.112;17.980;2023-06-10T14:16:59;2.10;;;1.20;;
79363;SDS011;68832;53.112;17.980;2023-06-10T14:19:26;2.40;;;1.20;;
79363;SDS011;68832;53.112;17.980;2023-06-10T14:21:53;5.10;;;1.20;;
79363;SDS011;68832;53.112;17.980;2023-06-10T14:24:21;4.60;;;2.00;;
79363;SDS011;68832;53.112;17.980;2023-06-10T14:26:49;2.50;;;1.10;;
79363;SDS011;68832;53.112;17.980;2023-06-10T14:29:15;5.10;;;1.60;;
79363;SDS011;68832;53.112;17.980;2023-06-10T14:31:43;4.80;;;1.20;;
79363;SDS011;68832;53.112;17.980;2023-06-10T14:34:10;7.60;;;1.30;;
79363;SDS011;68832;53.112;17.980;2023-06-10T14:36:37;5.10;;;1.00;;
79363;SDS011;68832;53.112;17.980;2023-06-10T14:39:03;3.70;;;1.60;;
79363;SDS011;68832;53.112;17.980;2023-06-10T14:41:31;3.90;;;1.10;;
79363;SDS011;68832;53.112;17.980;2023-06-10T14:43:58;5.10;;;1.30;;
79363;SDS011;68832;53.112;17.980;2023-06-10T14:46:25;3.00;;;1.10;;
79363;SDS011;68832;53.112;17.980;2023-06-10T14:48:53;3.20;;;0.80;;
79363;SDS011;68832;53.112;17.980;2023-06-10T14:51:20;3.40;;;0.90;;
79363;SDS011;68832;53.112;17.980;2023-06-10T14:53:47;2.80;;;1.00;;
79363;SDS011;68832;53.112;17.980;2023-06-10T14:56:14;3.90;;;1.10;;
79363;SDS011;68832;53.112;17.980;2023-06-10T14:58:41;2.10;;;0.90;;
79363;SDS011;68832;53.112;17.980;2023-06-10T15:01:08;3.20;;;0.60;;
79363;SDS011;68832;53.112;17.980;2023-06-10T15:03:35;3.60;;;1.40;;
79363;SDS011;68832;53.112;17.980;2023-06-10T15:06:02;1.80;;;0.60;;